sensor_id;sensor_type;location;lat;lon;timestamp;temperature;humidity
40756;DHT22;26461;45.630;9.418;2023-05-23T00:00:44;21.30;99.90
40756;DHT22;26461;45.630;9.418;2023-05-23T00:03:50;21.20;99.90
40756;DHT22;26461;45.630;9.418;2023-05-23T00:07:04;21.20;99.90
40756;DHT22;26461;45.630;9.418;2023-05-23T00:10:17;21.30;99.90
40756;DHT22;26461;45.630;9.418;2023-05-23T00:13:40;21.20;99.90
40756;DHT22;26461;45.630;9.418;2023-05-23T00:17:39;21.10;99.90
40756;DHT22;26461;45.630;9.418;2023-05-23T00:21:17;21.10;99.90
40756;DHT22;26461;45.630;9.418;2023-05-23T00:25:16;21.10;99.90
40756;DHT22;26461;45.630;9.418;2023-05-23T00:28:47;21.10;99.90
40756;DHT22;26461;45.630;9.418;2023-05-23T00:32:39;21.10;99.90
40756;DHT22;26461;45.630;9.418;2023-05-23T00:36:29;21.10;99.90
40756;DHT22;26461;45.630;9.418;2023-05-23T00:39:43;21.20;99.80
40756;DHT22;26461;45.630;9.418;2023-05-23T00:42:58;21.20;99.90
40756;DHT22;26461;45.630;9.418;2023-05-23T00:46:14;21.20;99.90
40756;DHT22;26461;45.630;9.418;2023-05-23T00:49:47;21.20;99.90
40756;DHT22;26461;45.630;9.418;2023-05-23T00:52:53;21.20;99.90
40756;DHT22;26461;45.630;9.418;2023-05-23T00:55:59;21.20;99.90
40756;DHT22;26461;45.630;9.418;2023-05-23T00:59:06;21.10;99.90
40756;DHT22;26461;45.630;9.418;2023-05-23T01:02:12;21.10;99.90
40756;DHT22;26461;45.630;9.418;2023-05-23T01:05:21;21.10;99.90
40756;DHT22;26461;45.630;9.418;2023-05-23T01:08:29;21.10;99.90
40756;DHT22;26461;45.630;9.418;2023-05-23T01:12:12;21.10;99.90
40756;DHT22;26461;45.630;9.418;2023-05-23T01:15:22;21.10;99.90
40756;DHT22;26461;45.630;9.418;2023-05-23T01:18:45;21.10;99.90
40756;DHT22;26461;45.630;9.418;2023-05-23T01:21:54;21.10;99.90
40756;DHT22;26461;45.630;9.418;2023-05-23T01:25:22;21.10;99.90
40756;DHT22;26461;45.630;9.418;2023-05-23T01:28:47;21.10;99.90
40756;DHT22;26461;45.630;9.418;2023-05-23T01:32:30;21.10;99.90
40756;DHT22;26461;45.630;9.418;2023-05-23T01:36:07;21.10;99.90
40756;DHT22;26461;45.630;9.418;2023-05-23T01:39:17;21.00;99.90
40756;DHT22;26461;45.630;9.418;2023-05-23T01:42:23;21.00;99.90
40756;DHT22;26461;45.630;9.418;2023-05-23T01:45:32;21.00;99.90
40756;DHT22;26461;45.630;9.418;2023-05-23T01:48:47;21.00;99.90
40756;DHT22;26461;45.630;9.418;2023-05-23T01:51:58;21.00;99.90
40756;DHT22;26461;45.630;9.418;2023-05-23T01:55:08;21.00;99.90
40756;DHT22;26461;45.630;9.418;2023-05-23T01:58:15;21.00;99.90
40756;DHT22;26461;45.630;9.418;2023-05-23T02:01:21;21.00;99.90
40756;DHT22;26461;45.630;9.418;2023-05-23T02:04:29;21.00;99.90
40756;DHT22;26461;45.630;9.418;2023-05-23T02:07:40;20.90;99.90
40756;DHT22;26461;45.630;9.418;2023-05-23T02:10:48;20.90;99.90
40756;DHT22;26461;45.630;9.418;2023-05-23T02:14:00;20.90;99.90
40756;DHT22;26461;45.630;9.418;2023-05-23T02:17:12;20.90;99.90
40756;DHT22;26461;45.630;9.418;2023-05-23T02:20:20;20.90;99.90
40756;DHT22;26461;45.630;9.418;2023-05-23T02:23:26;20.90;99.90
40756;DHT22;26461;45.630;9.418;2023-05-23T02:26:32;20.90;99.90
40756;DHT22;26461;45.630;9.418;2023-05-23T02:29:42;20.90;99.90
40756;DHT22;26461;45.630;9.418;2023-05-23T02:32:51;20.90;99.90
40756;DHT22;26461;45.630;9.418;2023-05-23T02:36:02;20.90;99.90
40756;DHT22;26461;45.630;9.418;2023-05-23T02:39:10;20.90;99.90
40756;DHT22;26461;45.630;9.418;2023-05-23T02:42:17;20.80;99.90
40756;DHT22;26461;45.630;9.418;2023-05-23T02:45:23;20.80;99.90
40756;DHT22;26461;45.630;9.418;2023-05-23T02:48:29;20.80;99.90
40756;DHT22;26461;45.630;9.418;2023-05-23T02:51:52;20.80;99.90
40756;DHT22;26461;45.630;9.418;2023-05-23T02:54:58;20.70;99.90
40756;DHT22;26461;45.630;9.418;2023-05-23T02:58:15;20.70;99.90
40756;DHT22;26461;45.630;9.418;2023-05-23T03:01:20;20.70;99.90
40756;DHT22;26461;45.630;9.418;2023-05-23T03:04:28;20.70;99.90
40756;DHT22;26461;45.630;9.418;2023-05-23T03:07:34;20.60;99.90
40756;DHT22;26461;45.630;9.418;2023-05-23T03:10:40;20.70;99.90
40756;DHT22;26461;45.630;9.418;2023-05-23T03:13:50;20.70;99.90
40756;DHT22;26461;45.630;9.418;2023-05-23T03:16:55;20.70;99.90
40756;DHT22;26461;45.630;9.418;2023-05-23T03:20:15;20.70;99.90
40756;DHT22;26461;45.630;9.418;2023-05-23T03:23:26;20.70;99.90
40756;DHT22;26461;45.630;9.418;2023-05-23T03:26:36;20.70;99.90
40756;DHT22;26461;45.630;9.418;2023-05-23T03:29:51;20.70;99.90
40756;DHT22;26461;45.630;9.418;2023-05-23T03:32:57;20.70;99.90
40756;DHT22;26461;45.630;9.418;2023-05-23T03:36:03;20.60;99.90
40756;DHT22;26461;45.630;9.418;2023-05-23T03:39:09;20.60;99.90
40756;DHT22;26461;45.630;9.418;2023-05-23T03:42:20;20.60;99.90
40756;DHT22;26461;45.630;9.418;2023-05-23T03:45:28;20.60;99.90
40756;DHT22;26461;45.630;9.418;2023-05-23T03:48:35;20.60;99.90
40756;DHT22;26461;45.630;9.418;2023-05-23T03:51:46;20.60;99.90
40756;DHT22;26461;45.630;9.418;2023-05-23T03:54:58;20.50;99.90
40756;DHT22;26461;45.630;9.418;2023-05-23T03:58:07;20.50;99.90
40756;DHT22;26461;45.630;9.418;2023-05-23T04:01:20;20.50;99.90
40756;DHT22;26461;45.630;9.418;2023-05-23T04:04:32;20.50;99.90
40756;DHT22;26461;45.630;9.418;2023-05-23T04:07:42;20.50;99.90
40756;DHT22;26461;45.630;9.418;2023-05-23T04:10:57;20.50;99.90
40756;DHT22;26461;45.630;9.418;2023-05-23T04:14:03;20.50;99.90
40756;DHT22;26461;45.630;9.418;2023-05-23T04:17:14;20.50;99.90
40756;DHT22;26461;45.630;9.418;2023-05-23T04:20:25;20.50;99.90
40756;DHT22;26461;45.630;9.418;2023-05-23T04:23:31;20.40;99.90
40756;DHT22;26461;45.630;9.418;2023-05-23T04:26:45;20.40;99.90
40756;DHT22;26461;45.630;9.418;2023-05-23T04:29:58;20.40;99.90
40756;DHT22;26461;45.630;9.418;2023-05-23T04:33:09;20.40;99.90
40756;DHT22;26461;45.630;9.418;2023-05-23T04:36:17;20.40;99.90
40756;DHT22;26461;45.630;9.418;2023-05-23T04:39:28;20.40;99.90
40756;DHT22;26461;45.630;9.418;2023-05-23T04:43:06;20.40;99.90
40756;DHT22;26461;45.630;9.418;2023-05-23T04:46:36;20.40;99.90
40756;DHT22;26461;45.630;9.418;2023-05-23T04:50:00;20.40;99.90
40756;DHT22;26461;45.630;9.418;2023-05-23T04:53:08;20.40;99.90
40756;DHT22;26461;45.630;9.418;2023-05-23T04:56:19;20.30;99.90
40756;DHT22;26461;45.630;9.418;2023-05-23T04:59:26;20.30;99.90
40756;DHT22;26461;45.630;9.418;2023-05-23T05:02:31;20.30;99.90
40756;DHT22;26461;45.630;9.418;2023-05-23T05:05:39;20.30;99.90
40756;DHT22;26461;45.630;9.418;2023-05-23T05:08:45;20.20;99.90
40756;DHT22;26461;45.630;9.418;2023-05-23T05:11:54;20.20;99.90
40756;DHT22;26461;45.630;9.418;2023-05-23T05:15:08;20.20;99.90
40756;DHT22;26461;45.630;9.418;2023-05-23T05:18:15;20.20;99.90
40756;DHT22;26461;45.630;9.418;2023-05-23T05:21:21;20.20;99.90
40756;DHT22;26461;45.630;9.418;2023-05-23T05:24:32;20.20;99.90
40756;DHT22;26461;45.630;9.418;2023-05-23T05:27:38;20.20;99.90
40756;DHT22;26461;45.630;9.418;2023-05-23T05:30:52;20.20;99.90
40756;DHT22;26461;45.630;9.418;2023-05-23T05:34:04;20.20;99.90
40756;DHT22;26461;45.630;9.418;2023-05-23T05:37:10;20.20;99.90
40756;DHT22;26461;45.630;9.418;2023-05-23T05:40:19;20.30;99.90
40756;DHT22;26461;45.630;9.418;2023-05-23T05:43:25;20.30;99.90
40756;DHT22;26461;45.630;9.418;2023-05-23T05:46:31;20.30;99.90
40756;DHT22;26461;45.630;9.418;2023-05-23T05:49:37;20.40;99.90
40756;DHT22;26461;45.630;9.418;2023-05-23T05:52:42;20.40;99.90
40756;DHT22;26461;45.630;9.418;2023-05-23T05:55:49;20.40;99.90
40756;DHT22;26461;45.630;9.418;2023-05-23T05:58:55;20.50;99.90
40756;DHT22;26461;45.630;9.418;2023-05-23T06:02:06;20.50;99.90
40756;DHT22;26461;45.630;9.418;2023-05-23T06:05:13;20.50;99.90
40756;DHT22;26461;45.630;9.418;2023-05-23T06:08:26;20.50;99.90
40756;DHT22;26461;45.630;9.418;2023-05-23T06:11:31;20.60;99.90
40756;DHT22;26461;45.630;9.418;2023-05-23T06:14:42;20.60;99.90
40756;DHT22;26461;45.630;9.418;2023-05-23T06:17:48;20.70;99.90
40756;DHT22;26461;45.630;9.418;2023-05-23T06:20:54;20.80;99.90
40756;DHT22;26461;45.630;9.418;2023-05-23T06:24:00;20.80;99.90
40756;DHT22;26461;45.630;9.418;2023-05-23T06:27:06;20.80;99.90
40756;DHT22;26461;45.630;9.418;2023-05-23T06:30:13;20.90;99.90
40756;DHT22;26461;45.630;9.418;2023-05-23T06:33:19;20.90;99.90
40756;DHT22;26461;45.630;9.418;2023-05-23T06:36:29;21.00;99.90
40756;DHT22;26461;45.630;9.418;2023-05-23T06:39:36;21.00;99.90
40756;DHT22;26461;45.630;9.418;2023-05-23T06:42:41;21.10;99.90
40756;DHT22;26461;45.630;9.418;2023-05-23T06:46:17;21.20;99.90
40756;DHT22;26461;45.630;9.418;2023-05-23T06:49:28;21.20;99.90
40756;DHT22;26461;45.630;9.418;2023-05-23T06:52:39;21.30;99.90
40756;DHT22;26461;45.630;9.418;2023-05-23T06:55:47;21.30;99.90
40756;DHT22;26461;45.630;9.418;2023-05-23T06:58:59;21.40;99.90
40756;DHT22;26461;45.630;9.418;2023-05-23T07:02:05;21.40;99.90
40756;DHT22;26461;45.630;9.418;2023-05-23T07:05:11;21.50;99.90
40756;DHT22;26461;45.630;9.418;2023-05-23T07:08:25;21.50;99.90
40756;DHT22;26461;45.630;9.418;2023-05-23T07:11:41;21.60;99.90
40756;DHT22;26461;45.630;9.418;2023-05-23T07:14:52;21.60;99.90
40756;DHT22;26461;45.630;9.418;2023-05-23T07:17:58;21.70;99.90
40756;DHT22;26461;45.630;9.418;2023-05-23T07:21:06;21.70;99.90
40756;DHT22;26461;45.630;9.418;2023-05-23T07:24:14;21.70;99.90
40756;DHT22;26461;45.630;9.418;2023-05-23T07:27:19;21.80;99.90
40756;DHT22;26461;45.630;9.418;2023-05-23T07:30:26;21.80;99.90
40756;DHT22;26461;45.630;9.418;2023-05-23T07:33:37;21.80;99.90
40756;DHT22;26461;45.630;9.418;2023-05-23T07:36:44;21.80;99.80
40756;DHT22;26461;45.630;9.418;2023-05-23T07:39:52;21.80;99.80
40756;DHT22;26461;45.630;9.418;2023-05-23T07:43:02;21.90;99.70
40756;DHT22;26461;45.630;9.418;2023-05-23T07:46:07;21.90;99.50
40756;DHT22;26461;45.630;9.418;2023-05-23T07:49:18;21.90;99.40
40756;DHT22;26461;45.630;9.418;2023-05-23T07:52:23;21.90;99.50
40756;DHT22;26461;45.630;9.418;2023-05-23T07:55:30;21.90;99.50
40756;DHT22;26461;45.630;9.418;2023-05-23T07:58:36;22.00;99.30
40756;DHT22;26461;45.630;9.418;2023-05-23T08:01:42;22.00;99.20
40756;DHT22;26461;45.630;9.418;2023-05-23T08:04:53;22.00;99.10
40756;DHT22;26461;45.630;9.418;2023-05-23T08:08:04;22.00;99.00
40756;DHT22;26461;45.630;9.418;2023-05-23T08:11:29;22.00;98.80
40756;DHT22;26461;45.630;9.418;2023-05-23T08:14:53;22.10;98.80
40756;DHT22;26461;45.630;9.418;2023-05-23T08:18:02;22.10;98.90
40756;DHT22;26461;45.630;9.418;2023-05-23T08:21:08;22.10;99.00
40756;DHT22;26461;45.630;9.418;2023-05-23T08:24:13;22.10;99.10
40756;DHT22;26461;45.630;9.418;2023-05-23T08:27:19;22.20;99.20
40756;DHT22;26461;45.630;9.418;2023-05-23T08:30:29;22.20;99.20
40756;DHT22;26461;45.630;9.418;2023-05-23T08:33:35;22.20;99.00
40756;DHT22;26461;45.630;9.418;2023-05-23T08:36:40;22.30;99.00
40756;DHT22;26461;45.630;9.418;2023-05-23T08:39:56;22.30;99.00
40756;DHT22;26461;45.630;9.418;2023-05-23T08:43:21;22.30;99.00
40756;DHT22;26461;45.630;9.418;2023-05-23T08:46:28;22.40;99.20
40756;DHT22;26461;45.630;9.418;2023-05-23T08:49:34;22.40;99.20
40756;DHT22;26461;45.630;9.418;2023-05-23T08:52:55;22.40;99.00
40756;DHT22;26461;45.630;9.418;2023-05-23T08:56:02;22.50;99.40
40756;DHT22;26461;45.630;9.418;2023-05-23T08:59:18;22.50;99.40
40756;DHT22;26461;45.630;9.418;2023-05-23T09:02:24;22.50;99.20
40756;DHT22;26461;45.630;9.418;2023-05-23T09:05:38;22.60;99.20
40756;DHT22;26461;45.630;9.418;2023-05-23T09:08:44;22.60;99.40
40756;DHT22;26461;45.630;9.418;2023-05-23T09:11:51;22.60;99.40
40756;DHT22;26461;45.630;9.418;2023-05-23T09:14:58;22.60;99.10
40756;DHT22;26461;45.630;9.418;2023-05-23T09:18:05;22.70;99.10
40756;DHT22;26461;45.630;9.418;2023-05-23T09:21:15;22.70;98.90
40756;DHT22;26461;45.630;9.418;2023-05-23T09:24:34;22.70;98.80
40756;DHT22;26461;45.630;9.418;2023-05-23T09:27:43;22.70;98.70
40756;DHT22;26461;45.630;9.418;2023-05-23T09:31:03;22.80;99.00
40756;DHT22;26461;45.630;9.418;2023-05-23T09:34:16;22.80;98.80
40756;DHT22;26461;45.630;9.418;2023-05-23T09:37:56;22.80;99.00
40756;DHT22;26461;45.630;9.418;2023-05-23T09:40:59;22.90;99.20
40756;DHT22;26461;45.630;9.418;2023-05-23T09:44:07;22.90;99.00
40756;DHT22;26461;45.630;9.418;2023-05-23T09:47:15;23.00;98.60
40756;DHT22;26461;45.630;9.418;2023-05-23T09:50:21;23.00;98.20
40756;DHT22;26461;45.630;9.418;2023-05-23T09:53:32;23.00;98.20
40756;DHT22;26461;45.630;9.418;2023-05-23T09:56:39;23.00;98.00
40756;DHT22;26461;45.630;9.418;2023-05-23T09:59:55;23.00;97.90
40756;DHT22;26461;45.630;9.418;2023-05-23T10:03:10;23.00;97.80
40756;DHT22;26461;45.630;9.418;2023-05-23T10:06:41;23.00;98.10
40756;DHT22;26461;45.630;9.418;2023-05-23T10:10:01;23.10;98.40
40756;DHT22;26461;45.630;9.418;2023-05-23T10:13:07;23.10;98.70
40756;DHT22;26461;45.630;9.418;2023-05-23T10:19:26;23.20;98.30
40756;DHT22;26461;45.630;9.418;2023-05-23T10:22:39;23.20;97.90
40756;DHT22;26461;45.630;9.418;2023-05-23T10:25:47;23.30;97.60
40756;DHT22;26461;45.630;9.418;2023-05-23T10:28:58;23.30;97.50
40756;DHT22;26461;45.630;9.418;2023-05-23T10:32:05;23.30;97.80
40756;DHT22;26461;45.630;9.418;2023-05-23T10:35:47;23.30;98.00
40756;DHT22;26461;45.630;9.418;2023-05-23T10:39:17;23.40;97.70
40756;DHT22;26461;45.630;9.418;2023-05-23T10:45:50;23.50;96.90
40756;DHT22;26461;45.630;9.418;2023-05-23T10:48:57;23.50;97.10
40756;DHT22;26461;45.630;9.418;2023-05-23T10:52:09;23.50;97.10
40756;DHT22;26461;45.630;9.418;2023-05-23T10:55:20;23.60;96.70
40756;DHT22;26461;45.630;9.418;2023-05-23T10:58:32;23.60;96.70
40756;DHT22;26461;45.630;9.418;2023-05-23T11:01:43;23.60;96.50
40756;DHT22;26461;45.630;9.418;2023-05-23T11:08:37;23.70;96.90
40756;DHT22;26461;45.630;9.418;2023-05-23T11:11:54;23.70;96.70
40756;DHT22;26461;45.630;9.418;2023-05-23T11:15:21;23.80;96.00
40756;DHT22;26461;45.630;9.418;2023-05-23T11:18:27;23.80;96.50
40756;DHT22;26461;45.630;9.418;2023-05-23T11:21:39;23.90;96.50
40756;DHT22;26461;45.630;9.418;2023-05-23T11:24:53;23.90;96.40
40756;DHT22;26461;45.630;9.418;2023-05-23T11:28:04;24.00;96.30
40756;DHT22;26461;45.630;9.418;2023-05-23T11:31:09;24.00;95.70
40756;DHT22;26461;45.630;9.418;2023-05-23T11:34:15;24.10;95.60
40756;DHT22;26461;45.630;9.418;2023-05-23T11:37:21;24.10;95.20
40756;DHT22;26461;45.630;9.418;2023-05-23T11:40:40;24.10;95.50
40756;DHT22;26461;45.630;9.418;2023-05-23T11:43:51;24.20;95.70
40756;DHT22;26461;45.630;9.418;2023-05-23T11:47:02;24.20;95.80
40756;DHT22;26461;45.630;9.418;2023-05-23T11:50:08;24.30;95.50
40756;DHT22;26461;45.630;9.418;2023-05-23T11:53:15;24.30;95.10
40756;DHT22;26461;45.630;9.418;2023-05-23T11:56:27;24.30;95.20
40756;DHT22;26461;45.630;9.418;2023-05-23T11:59:38;24.30;95.40
40756;DHT22;26461;45.630;9.418;2023-05-23T12:02:44;24.40;94.90
40756;DHT22;26461;45.630;9.418;2023-05-23T12:05:57;24.40;95.40
40756;DHT22;26461;45.630;9.418;2023-05-23T12:09:02;24.50;95.00
40756;DHT22;26461;45.630;9.418;2023-05-23T12:12:08;24.60;94.80
40756;DHT22;26461;45.630;9.418;2023-05-23T12:15:24;24.60;94.70
40756;DHT22;26461;45.630;9.418;2023-05-23T12:18:34;24.70;94.60
40756;DHT22;26461;45.630;9.418;2023-05-23T12:21:46;24.70;94.70
40756;DHT22;26461;45.630;9.418;2023-05-23T12:25:11;24.70;94.20
40756;DHT22;26461;45.630;9.418;2023-05-23T12:28:37;24.80;93.80
40756;DHT22;26461;45.630;9.418;2023-05-23T12:31:48;24.80;94.80
40756;DHT22;26461;45.630;9.418;2023-05-23T12:34:54;24.90;94.20
40756;DHT22;26461;45.630;9.418;2023-05-23T12:38:05;24.90;94.20
40756;DHT22;26461;45.630;9.418;2023-05-23T12:41:16;24.90;94.10
40756;DHT22;26461;45.630;9.418;2023-05-23T12:44:32;25.00;94.10
40756;DHT22;26461;45.630;9.418;2023-05-23T12:47:45;25.00;94.10
40756;DHT22;26461;45.630;9.418;2023-05-23T12:50:56;25.00;93.10
40756;DHT22;26461;45.630;9.418;2023-05-23T12:54:03;25.10;93.70
40756;DHT22;26461;45.630;9.418;2023-05-23T12:57:09;25.10;93.70
40756;DHT22;26461;45.630;9.418;2023-05-23T13:00:16;25.20;93.50
40756;DHT22;26461;45.630;9.418;2023-05-23T13:03:30;25.20;93.20
40756;DHT22;26461;45.630;9.418;2023-05-23T13:06:40;25.30;93.20
40756;DHT22;26461;45.630;9.418;2023-05-23T13:09:51;25.20;92.70
40756;DHT22;26461;45.630;9.418;2023-05-23T13:12:56;25.30;92.80
40756;DHT22;26461;45.630;9.418;2023-05-23T13:16:02;25.30;92.00
40756;DHT22;26461;45.630;9.418;2023-05-23T13:19:07;25.30;91.90
40756;DHT22;26461;45.630;9.418;2023-05-23T13:22:13;25.40;91.40
40756;DHT22;26461;45.630;9.418;2023-05-23T13:25:24;25.50;92.70
40756;DHT22;26461;45.630;9.418;2023-05-23T13:28:35;25.50;92.80
40756;DHT22;26461;45.630;9.418;2023-05-23T13:31:45;25.60;93.00
40756;DHT22;26461;45.630;9.418;2023-05-23T13:34:55;25.70;92.70
40756;DHT22;26461;45.630;9.418;2023-05-23T13:38:06;25.70;92.40
40756;DHT22;26461;45.630;9.418;2023-05-23T13:41:18;25.70;92.00
40756;DHT22;26461;45.630;9.418;2023-05-23T13:44:24;25.80;91.60
40756;DHT22;26461;45.630;9.418;2023-05-23T13:47:29;25.80;91.00
40756;DHT22;26461;45.630;9.418;2023-05-23T13:50:35;25.90;91.20
40756;DHT22;26461;45.630;9.418;2023-05-23T13:53:41;25.90;91.50
40756;DHT22;26461;45.630;9.418;2023-05-23T13:56:52;26.00;90.80
40756;DHT22;26461;45.630;9.418;2023-05-23T13:59:57;26.10;90.40
40756;DHT22;26461;45.630;9.418;2023-05-23T14:03:10;26.20;90.30
40756;DHT22;26461;45.630;9.418;2023-05-23T14:06:21;26.20;90.30
40756;DHT22;26461;45.630;9.418;2023-05-23T14:09:26;26.20;89.80
40756;DHT22;26461;45.630;9.418;2023-05-23T14:12:31;26.30;89.80
40756;DHT22;26461;45.630;9.418;2023-05-23T14:15:37;26.30;88.60
40756;DHT22;26461;45.630;9.418;2023-05-23T14:18:47;26.40;88.70
40756;DHT22;26461;45.630;9.418;2023-05-23T14:21:52;26.40;87.80
40756;DHT22;26461;45.630;9.418;2023-05-23T14:25:03;26.40;88.90
40756;DHT22;26461;45.630;9.418;2023-05-23T14:28:09;26.40;88.20
40756;DHT22;26461;45.630;9.418;2023-05-23T14:31:20;26.40;88.10
40756;DHT22;26461;45.630;9.418;2023-05-23T14:34:31;26.50;88.00
40756;DHT22;26461;45.630;9.418;2023-05-23T14:37:36;26.50;89.70
40756;DHT22;26461;45.630;9.418;2023-05-23T14:40:42;26.50;90.00
40756;DHT22;26461;45.630;9.418;2023-05-23T14:43:53;26.60;89.50
40756;DHT22;26461;45.630;9.418;2023-05-23T14:46:59;26.60;89.70
40756;DHT22;26461;45.630;9.418;2023-05-23T14:50:05;26.60;90.30
40756;DHT22;26461;45.630;9.418;2023-05-23T14:53:16;26.60;90.80
40756;DHT22;26461;45.630;9.418;2023-05-23T14:56:31;26.60;90.50
40756;DHT22;26461;45.630;9.418;2023-05-23T14:59:36;26.60;90.30
40756;DHT22;26461;45.630;9.418;2023-05-23T15:02:44;26.60;89.90
40756;DHT22;26461;45.630;9.418;2023-05-23T15:05:50;26.60;90.20
40756;DHT22;26461;45.630;9.418;2023-05-23T15:08:56;26.60;90.30
40756;DHT22;26461;45.630;9.418;2023-05-23T15:12:01;26.50;90.30
40756;DHT22;26461;45.630;9.418;2023-05-23T15:15:12;26.50;90.30
40756;DHT22;26461;45.630;9.418;2023-05-23T15:18:18;26.50;90.60
40756;DHT22;26461;45.630;9.418;2023-05-23T15:21:24;26.50;90.20
40756;DHT22;26461;45.630;9.418;2023-05-23T15:24:35;26.50;90.30
40756;DHT22;26461;45.630;9.418;2023-05-23T15:27:46;26.60;90.30
40756;DHT22;26461;45.630;9.418;2023-05-23T15:30:51;26.50;90.30
40756;DHT22;26461;45.630;9.418;2023-05-23T15:34:03;26.60;90.90
40756;DHT22;26461;45.630;9.418;2023-05-23T15:37:08;26.60;90.80
40756;DHT22;26461;45.630;9.418;2023-05-23T15:40:19;26.80;90.60
40756;DHT22;26461;45.630;9.418;2023-05-23T15:43:25;26.90;89.90
40756;DHT22;26461;45.630;9.418;2023-05-23T15:46:31;27.00;88.70
40756;DHT22;26461;45.630;9.418;2023-05-23T15:49:36;27.10;88.40
40756;DHT22;26461;45.630;9.418;2023-05-23T15:52:42;27.20;88.70
40756;DHT22;26461;45.630;9.418;2023-05-23T15:55:48;27.30;89.00
40756;DHT22;26461;45.630;9.418;2023-05-23T15:58:58;27.40;90.00
40756;DHT22;26461;45.630;9.418;2023-05-23T16:02:04;27.40;89.50
40756;DHT22;26461;45.630;9.418;2023-05-23T16:05:10;27.40;89.30
40756;DHT22;26461;45.630;9.418;2023-05-23T16:08:16;27.40;88.90
40756;DHT22;26461;45.630;9.418;2023-05-23T16:11:22;27.50;89.10
40756;DHT22;26461;45.630;9.418;2023-05-23T16:14:29;27.50;89.00
40756;DHT22;26461;45.630;9.418;2023-05-23T16:17:40;27.50;89.20
40756;DHT22;26461;45.630;9.418;2023-05-23T16:20:46;27.50;89.10
40756;DHT22;26461;45.630;9.418;2023-05-23T16:23:56;27.60;89.00
40756;DHT22;26461;45.630;9.418;2023-05-23T16:27:04;27.70;89.30
40756;DHT22;26461;45.630;9.418;2023-05-23T16:30:10;27.70;89.10
40756;DHT22;26461;45.630;9.418;2023-05-23T16:33:16;27.80;88.90
40756;DHT22;26461;45.630;9.418;2023-05-23T16:36:21;27.80;88.80
40756;DHT22;26461;45.630;9.418;2023-05-23T16:39:34;27.90;88.40
40756;DHT22;26461;45.630;9.418;2023-05-23T16:42:40;27.90;87.80
40756;DHT22;26461;45.630;9.418;2023-05-23T16:45:47;27.90;86.90
40756;DHT22;26461;45.630;9.418;2023-05-23T16:48:54;28.00;86.80
40756;DHT22;26461;45.630;9.418;2023-05-23T16:52:00;28.00;86.80
40756;DHT22;26461;45.630;9.418;2023-05-23T16:55:11;28.00;86.50
40756;DHT22;26461;45.630;9.418;2023-05-23T16:58:22;27.90;86.30
40756;DHT22;26461;45.630;9.418;2023-05-23T17:01:32;27.90;86.10
40756;DHT22;26461;45.630;9.418;2023-05-23T17:04:37;27.90;87.00
40756;DHT22;26461;45.630;9.418;2023-05-23T17:07:48;27.80;86.20
40756;DHT22;26461;45.630;9.418;2023-05-23T17:10:56;27.80;86.70
40756;DHT22;26461;45.630;9.418;2023-05-23T17:14:02;27.70;86.60
40756;DHT22;26461;45.630;9.418;2023-05-23T17:17:07;27.70;87.00
40756;DHT22;26461;45.630;9.418;2023-05-23T17:20:16;27.60;86.70
40756;DHT22;26461;45.630;9.418;2023-05-23T17:23:26;27.50;85.90
40756;DHT22;26461;45.630;9.418;2023-05-23T17:26:37;27.40;85.00
40756;DHT22;26461;45.630;9.418;2023-05-23T17:29:48;27.30;84.30
40756;DHT22;26461;45.630;9.418;2023-05-23T17:32:53;27.10;83.70
40756;DHT22;26461;45.630;9.418;2023-05-23T17:36:04;27.10;83.60
40756;DHT22;26461;45.630;9.418;2023-05-23T17:39:19;26.90;83.00
40756;DHT22;26461;45.630;9.418;2023-05-23T17:42:32;26.80;82.70
40756;DHT22;26461;45.630;9.418;2023-05-23T17:45:44;26.70;82.00
40756;DHT22;26461;45.630;9.418;2023-05-23T17:48:50;26.60;81.40
40756;DHT22;26461;45.630;9.418;2023-05-23T17:52:00;26.50;81.30
40756;DHT22;26461;45.630;9.418;2023-05-23T17:55:14;26.40;81.20
40756;DHT22;26461;45.630;9.418;2023-05-23T17:58:25;26.30;81.10
40756;DHT22;26461;45.630;9.418;2023-05-23T18:01:30;26.20;81.30
40756;DHT22;26461;45.630;9.418;2023-05-23T18:04:44;26.10;81.70
40756;DHT22;26461;45.630;9.418;2023-05-23T18:07:50;26.00;81.70
40756;DHT22;26461;45.630;9.418;2023-05-23T18:10:56;25.90;81.20
40756;DHT22;26461;45.630;9.418;2023-05-23T18:14:07;25.80;81.30
40756;DHT22;26461;45.630;9.418;2023-05-23T18:17:18;25.70;81.50
40756;DHT22;26461;45.630;9.418;2023-05-23T18:20:23;25.70;81.70
40756;DHT22;26461;45.630;9.418;2023-05-23T18:23:29;25.60;81.80
40756;DHT22;26461;45.630;9.418;2023-05-23T18:26:40;25.50;81.80
40756;DHT22;26461;45.630;9.418;2023-05-23T18:29:48;25.50;81.80
40756;DHT22;26461;45.630;9.418;2023-05-23T18:32:58;25.40;81.70
40756;DHT22;26461;45.630;9.418;2023-05-23T18:36:05;25.30;81.90
40756;DHT22;26461;45.630;9.418;2023-05-23T18:39:14;25.20;84.90
40756;DHT22;26461;45.630;9.418;2023-05-23T18:42:23;25.20;84.70
40756;DHT22;26461;45.630;9.418;2023-05-23T18:45:33;25.10;84.60
40756;DHT22;26461;45.630;9.418;2023-05-23T18:48:43;25.00;84.40
40756;DHT22;26461;45.630;9.418;2023-05-23T18:51:49;24.90;84.60
40756;DHT22;26461;45.630;9.418;2023-05-23T18:54:57;24.80;85.30
40756;DHT22;26461;45.630;9.418;2023-05-23T18:58:03;24.70;85.70
40756;DHT22;26461;45.630;9.418;2023-05-23T19:01:14;24.70;86.60
40756;DHT22;26461;45.630;9.418;2023-05-23T19:04:20;24.60;85.80
40756;DHT22;26461;45.630;9.418;2023-05-23T19:07:25;24.50;85.50
40756;DHT22;26461;45.630;9.418;2023-05-23T19:10:31;24.40;86.20
40756;DHT22;26461;45.630;9.418;2023-05-23T19:13:42;24.40;86.70
40756;DHT22;26461;45.630;9.418;2023-05-23T19:16:53;24.30;86.80
40756;DHT22;26461;45.630;9.418;2023-05-23T19:20:04;24.20;87.40
40756;DHT22;26461;45.630;9.418;2023-05-23T19:23:11;24.20;87.50
40756;DHT22;26461;45.630;9.418;2023-05-23T19:26:17;24.10;87.80
40756;DHT22;26461;45.630;9.418;2023-05-23T19:29:22;24.10;88.20
40756;DHT22;26461;45.630;9.418;2023-05-23T19:32:33;24.00;88.70
40756;DHT22;26461;45.630;9.418;2023-05-23T19:35:47;24.00;88.90
40756;DHT22;26461;45.630;9.418;2023-05-23T19:38:59;23.90;89.20
40756;DHT22;26461;45.630;9.418;2023-05-23T19:42:06;23.80;89.30
40756;DHT22;26461;45.630;9.418;2023-05-23T19:45:12;23.80;89.30
40756;DHT22;26461;45.630;9.418;2023-05-23T19:48:23;23.70;89.50
40756;DHT22;26461;45.630;9.418;2023-05-23T19:51:31;23.70;89.50
40756;DHT22;26461;45.630;9.418;2023-05-23T19:54:40;23.60;89.60
40756;DHT22;26461;45.630;9.418;2023-05-23T19:57:48;23.60;90.10
40756;DHT22;26461;45.630;9.418;2023-05-23T20:00:59;23.60;90.20
40756;DHT22;26461;45.630;9.418;2023-05-23T20:04:13;23.50;90.10
40756;DHT22;26461;45.630;9.418;2023-05-23T20:07:19;23.50;90.30
40756;DHT22;26461;45.630;9.418;2023-05-23T20:10:29;23.50;90.20
40756;DHT22;26461;45.630;9.418;2023-05-23T20:13:37;23.50;90.30